Time;durP1;ratioP1;P1;durP2;ratioP2;P2;SDS_P1;SDS_P2;PMS_P1;PMS_P2;Temp;Humidity;BMP_temperature;BMP_pressure;BME280_temperature;BME280_humidity;BME280_pressure;Samples;Min_cycle;Max_cycle;Signal;HPM_P1;HPM_P2
2023/10/05 00:04:52;;;;;;;5.20;3.60;;;;;;;13.20;99.95;101011.69;177942;1259;46083;-76
2023/10/05 00:08:56;;;;;;;6.10;3.70;;;;;;;13.16;99.77;100999.70;177633;1257;46124;-77
2023/10/05 00:13:05;;;;;;;12.90;4.60;;;;;;;13.11;99.42;100990.45;178961;1256;46319;-77
2023/10/05 00:17:08;;;;;;;5.80;3.50;;;;;;;13.06;99.29;100983.77;179079;1257;45990;-77
2023/10/05 00:21:11;;;;;;;6.10;3.40;;;;;;;12.99;99.42;100986.63;178626;1260;58198;-78
2023/10/05 00:25:17;;;;;;;6.10;3.30;;;;;;;12.95;99.52;100991.41;178062;1260;46128;-77
2023/10/05 00:33:29;;;;;;;6.50;4.30;;;;;;;12.92;99.26;100984.71;180154;1257;46000;-78
2023/10/05 00:37:35;;;;;;;6.90;3.60;;;;;;;12.86;99.09;100976.50;178646;1257;44996;-77
2023/10/05 00:41:38;;;;;;;6.80;3.50;;;;;;;12.80;99.09;100975.39;178667;1256;59256;-77
2023/10/05 00:45:46;;;;;;;7.60;3.90;;;;;;;12.73;99.57;100972.73;178128;1257;46019;-77
2023/10/05 00:49:59;;;;;;;6.10;4.60;;;;;;;12.66;99.81;100967.70;178214;1256;46157;-77
2023/10/05 00:54:10;;;;;;;6.90;3.70;;;;;;;12.63;99.86;100969.21;177961;1257;46432;-77
2023/10/05 00:58:15;;;;;;;5.10;3.70;;;;;;;12.58;99.96;100971.02;178738;1260;46116;-76
2023/10/05 01:02:21;;;;;;;6.10;4.00;;;;;;;12.52;100.00;100969.70;178163;1257;57412;-76
2023/10/05 01:06:39;;;;;;;6.70;3.30;;;;;;;12.50;100.00;100970.64;178690;1257;44672;-78
2023/10/05 01:10:43;;;;;;;10.20;3.50;;;;;;;12.45;100.00;100973.99;178868;1256;45892;-78
2023/10/05 01:14:53;;;;;;;9.40;3.80;;;;;;;12.41;100.00;100963.09;178251;1257;44910;-78
2023/10/05 01:18:56;;;;;;;4.90;3.10;;;;;;;12.40;100.00;100963.52;179461;1257;46042;-78
2023/10/05 01:23:01;;;;;;;7.40;4.70;;;;;;;12.41;100.00;100962.55;179384;1256;59234;-78
2023/10/05 01:27:04;;;;;;;6.50;3.30;;;;;;;12.40;100.00;100958.19;178539;1256;46070;-77
2023/10/05 01:31:16;;;;;;;6.80;3.50;;;;;;;12.35;100.00;100952.71;177746;1257;46024;-78
2023/10/05 01:35:22;;;;;;;4.70;3.20;;;;;;;12.29;100.00;100949.29;178097;1257;46123;-77
2023/10/05 01:39:26;;;;;;;8.50;4.40;;;;;;;12.20;100.00;100947.13;178350;1257;46217;-77
2023/10/05 01:43:29;;;;;;;5.90;3.60;;;;;;;12.08;100.00;100941.83;178552;1257;58038;-78
2023/10/05 01:47:33;;;;;;;6.50;2.80;;;;;;;11.99;100.00;100945.02;178718;1257;45977;-77
2023/10/05 01:51:36;;;;;;;8.80;3.50;;;;;;;11.91;100.00;100950.72;179175;1257;46110;-77
2023/10/05 01:55:40;;;;;;;9.30;3.60;;;;;;;11.86;100.00;100944.52;178367;1256;48486;-78
2023/10/05 01:59:43;;;;;;;5.80;3.30;;;;;;;11.82;100.00;100943.45;178588;1256;46205;-77
2023/10/05 02:03:54;;;;;;;4.00;3.20;;;;;;;11.78;100.00;100943.00;178148;1257;56966;-77
2023/10/05 02:07:58;;;;;;;8.80;4.70;;;;;;;11.78;100.00;100946.92;179159;1256;46135;-77
2023/10/05 02:12:02;;;;;;;7.70;4.10;;;;;;;11.81;100.00;100946.14;178264;1257;46163;-77
2023/10/05 02:16:13;;;;;;;3.90;2.70;;;;;;;11.78;100.00;100948.50;179514;1256;46089;-78
2023/10/05 02:20:38;;;;;;;7.50;3.90;;;;;;;11.73;100.00;100948.03;178927;1257;46089;-78
2023/10/05 02:24:42;;;;;;;6.90;3.90;;;;;;;11.70;100.00;100952.73;179717;1258;58407;-76
2023/10/05 02:28:45;;;;;;;8.90;4.20;;;;;;;11.68;100.00;100950.89;179204;1256;44446;-76
2023/10/05 02:32:48;;;;;;;3.60;2.80;;;;;;;11.63;100.00;100950.55;179481;1257;45997;-78
2023/10/05 02:36:54;;;;;;;4.30;2.80;;;;;;;11.60;100.00;100947.77;179591;1258;44260;-77
2023/10/05 02:41:03;;;;;;;5.40;3.40;;;;;;;11.59;100.00;100944.48;179770;1258;45523;-78
2023/10/05 02:45:09;;;;;;;6.70;3.30;;;;;;;11.56;100.00;100942.02;178112;1257;59604;-78
2023/10/05 02:49:15;;;;;;;4.30;3.60;;;;;;;11.50;100.00;100936.80;179463;1259;46112;-77
2023/10/05 02:53:18;;;;;;;5.40;3.60;;;;;;;11.48;100.00;100931.05;179150;1257;46101;-78
2023/10/05 02:57:25;;;;;;;9.80;4.40;;;;;;;11.49;100.00;100933.16;178471;1257;46168;-77
2023/10/05 03:01:32;;;;;;;5.70;4.10;;;;;;;11.50;100.00;100930.58;179450;1256;45857;-78
2023/10/05 03:05:41;;;;;;;8.60;4.40;;;;;;;11.47;100.00;100925.14;179039;1258;58171;-78
2023/10/05 03:09:46;;;;;;;5.70;3.30;;;;;;;11.46;100.00;100921.49;179192;1256;46195;-78
2023/10/05 03:13:50;;;;;;;6.30;4.50;;;;;;;11.47;100.00;100919.04;178677;1257;46588;-78
2023/10/05 03:17:56;;;;;;;9.00;3.70;;;;;;;11.49;100.00;100916.76;179037;1256;45935;-77
2023/10/05 03:22:04;;;;;;;7.10;3.80;;;;;;;11.47;100.00;100911.79;179703;1259;43848;-78
2023/10/05 03:26:10;;;;;;;6.70;2.70;;;;;;;11.42;100.00;100909.85;179735;1257;58819;-78
2023/10/05 03:30:14;;;;;;;6.30;4.90;;;;;;;11.43;100.00;100908.00;178672;1257;46007;-78
2023/10/05 03:34:17;;;;;;;5.30;3.80;;;;;;;11.43;100.00;100901.61;180710;1256;44245;-78
2023/10/05 03:38:22;;;;;;;5.30;3.20;;;;;;;11.42;100.00;100900.77;180970;1257;44470;-78
2023/10/05 03:42:25;;;;;;;7.20;3.70;;;;;;;11.40;100.00;100891.50;179738;1256;46296;-79
2023/10/05 03:46:29;;;;;;;5.50;3.40;;;;;;;11.41;100.00;100885.58;179286;1256;57916;-78
2023/10/05 03:50:32;;;;;;;8.80;4.30;;;;;;;11.44;100.00;100885.21;178221;1257;46240;-78
2023/10/05 03:54:38;;;;;;;8.00;4.10;;;;;;;11.46;100.00;100885.03;179198;1257;46057;-78
2023/10/05 03:58:41;;;;;;;6.60;3.10;;;;;;;11.50;100.00;100883.66;179147;1257;44205;-79
2023/10/05 04:02:44;;;;;;;4.20;3.30;;;;;;;11.54;100.00;100881.02;179502;1259;46048;-78
2023/10/05 04:06:51;;;;;;;12.10;4.00;;;;;;;11.61;100.00;100878.73;178579;1257;58050;-78
2023/10/05 04:10:54;;;;;;;5.80;3.50;;;;;;;11.66;100.00;100873.76;179560;1257;44126;-78
2023/10/05 04:15:01;;;;;;;5.70;3.50;;;;;;;11.67;100.00;100867.42;178043;1256;46298;-78
2023/10/05 04:19:04;;;;;;;9.30;4.50;;;;;;;11.70;100.00;100863.86;178585;1257;46066;-78
2023/10/05 04:23:10;;;;;;;10.30;4.50;;;;;;;11.75;100.00;100862.40;179683;1257;46035;-77
2023/10/05 04:27:13;;;;;;;7.20;3.40;;;;;;;11.79;100.00;100862.83;179205;1257;58198;-78
2023/10/05 04:31:21;;;;;;;5.80;3.20;;;;;;;11.74;100.00;100857.48;179828;1256;46302;-78
2023/10/05 04:35:28;;;;;;;9.90;4.70;;;;;;;11.70;100.00;100854.07;179382;1258;45894;-78
2023/10/05 04:39:32;;;;;;;5.40;2.90;;;;;;;11.67;100.00;100851.86;178659;1259;46053;-78
2023/10/05 04:43:38;;;;;;;7.20;3.90;;;;;;;11.64;100.00;100848.53;180149;1257;46111;-78
2023/10/05 04:47:41;;;;;;;7.30;3.40;;;;;;;11.59;100.00;100844.98;180622;1257;59578;-78
2023/10/05 04:51:45;;;;;;;6.50;4.20;;;;;;;11.57;100.00;100849.20;179944;1256;46115;-78
2023/10/05 04:55:53;;;;;;;7.10;3.70;;;;;;;11.52;100.00;100849.73;180244;1256;46022;-78
2023/10/05 05:00:18;;;;;;;4.90;3.30;;;;;;;11.50;100.00;100846.74;178938;1257;45885;-78
2023/10/05 05:08:40;;;;;;;4.40;3.20;;;;;;;11.46;100.00;100844.52;178215;1259;59199;-77
2023/10/05 05:12:43;;;;;;;8.40;4.50;;;;;;;11.47;100.00;100846.95;178457;1259;45982;-78
2023/10/05 05:16:46;;;;;;;7.40;3.80;;;;;;;11.48;100.00;100838.71;179103;1256;46111;-78
2023/10/05 05:20:49;;;;;;;6.30;3.50;;;;;;;11.50;100.00;100838.58;179286;1256;45942;-78
2023/10/05 05:24:53;;;;;;;9.10;3.70;;;;;;;11.53;100.00;100834.45;178669;1257;46121;-78
2023/10/05 05:28:58;;;;;;;9.40;4.60;;;;;;;11.50;100.00;100830.94;178583;1259;59468;-77
2023/10/05 05:33:10;;;;;;;7.50;4.30;;;;;;;11.50;100.00;100830.38;180169;1258;44020;-79
2023/10/05 05:37:28;;;;;;;10.30;3.60;;;;;;;11.52;100.00;100829.17;178972;1257;43974;-78
2023/10/05 05:41:36;;;;;;;5.00;3.90;;;;;;;11.55;100.00;100826.23;179296;1259;46118;-78
2023/10/05 05:45:43;;;;;;;6.50;4.10;;;;;;;11.58;100.00;100822.84;179033;1257;45953;-78
2023/10/05 05:49:47;;;;;;;3.30;2.80;;;;;;;11.59;100.00;100820.83;179265;1257;58816;-79
2023/10/05 05:53:52;;;;;;;7.50;3.20;;;;;;;11.62;100.00;100820.98;178283;1259;46031;-78
2023/10/05 05:57:55;;;;;;;6.70;4.60;;;;;;;11.66;100.00;100817.77;178642;1260;46189;-78
2023/10/05 06:02:00;;;;;;;8.60;4.50;;;;;;;11.73;100.00;100818.98;179010;1258;46096;-78
2023/10/05 06:06:03;;;;;;;6.50;4.00;;;;;;;11.85;100.00;100816.31;179037;1257;46040;-78
2023/10/05 06:10:15;;;;;;;9.70;4.10;;;;;;;12.08;100.00;100820.95;179409;1257;58684;-78
2023/10/05 06:14:19;;;;;;;6.70;3.60;;;;;;;12.32;100.00;100823.30;178621;1257;46117;-78
2023/10/05 06:18:22;;;;;;;6.90;3.70;;;;;;;12.56;100.00;100822.30;179279;1257;45918;-78
2023/10/05 06:22:25;;;;;;;7.10;3.80;;;;;;;12.77;100.00;100820.73;178098;1256;46146;-78
2023/10/05 06:26:32;;;;;;;9.00;5.10;;;;;;;13.04;100.00;100818.89;178623;1256;46188;-78
2023/10/05 06:30:36;;;;;;;7.80;5.70;;;;;;;13.34;100.00;100813.52;179020;1257;57938;-78
2023/10/05 06:34:40;;;;;;;4.80;3.50;;;;;;;13.62;100.00;100812.81;179742;1256;46257;-77
2023/10/05 06:38:43;;;;;;;6.90;4.50;;;;;;;13.84;99.57;100809.11;179017;1260;46147;-78
2023/10/05 06:42:47;;;;;;;8.40;3.30;;;;;;;14.00;99.08;100810.90;179616;1260;50729;-78
2023/10/05 06:46:53;;;;;;;14.80;4.80;;;;;;;14.16;99.35;100810.55;178598;1259;46489;-78
2023/10/05 06:50:58;;;;;;;7.10;4.90;;;;;;;14.32;97.38;100808.67;178864;1256;59631;-79
2023/10/05 06:55:01;;;;;;;7.40;3.00;;;;;;;14.48;98.00;100807.10;179598;1258;46120;-78
2023/10/05 06:59:07;;;;;;;4.60;3.50;;;;;;;14.64;98.35;100809.77;179937;1256;46113;-77
2023/10/05 07:03:11;;;;;;;7.50;3.60;;;;;;;14.79;97.05;100804.15;179053;1257;44779;-78
2023/10/05 07:07:14;;;;;;;8.30;4.60;;;;;;;14.90;95.43;100799.41;179182;1260;45997;-78
2023/10/05 07:11:18;;;;;;;5.10;3.90;;;;;;;14.97;95.26;100801.38;179515;1256;58224;-78
2023/10/05 07:15:21;;;;;;;11.20;3.80;;;;;;;15.05;95.33;100799.48;180216;1257;44264;-78
2023/10/05 07:19:25;;;;;;;9.90;4.50;;;;;;;15.11;94.67;100800.10;178787;1258;45982;-78
2023/10/05 07:23:29;;;;;;;11.10;4.50;;;;;;;15.18;94.14;100797.48;178536;1257;45762;-78
2023/10/05 07:27:32;;;;;;;5.70;3.70;;;;;;;15.26;93.49;100796.06;179439;1259;46118;-76
2023/10/05 07:31:35;;;;;;;10.10;4.20;;;;;;;15.31;93.45;100792.10;178123;1259;57925;-76
2023/10/05 07:35:41;;;;;;;9.70;4.60;;;;;;;15.36;92.78;100793.73;178393;1256;44116;-77
2023/10/05 07:39:46;;;;;;;7.50;4.50;;;;;;;15.44;92.55;100786.21;178823;1260;152953;-77
2023/10/05 07:43:49;;;;;;;7.00;4.20;;;;;;;15.50;91.95;100782.52;178970;1259;46002;-78
2023/10/05 07:48:09;;;;;;;5.80;2.90;;;;;;;15.62;92.73;100784.14;179749;1256;46116;-78
2023/10/05 07:52:14;;;;;;;10.80;5.70;;;;;;;15.72;91.97;100776.73;178871;1260;58205;-78
2023/10/05 07:56:18;;;;;;;6.90;4.50;;;;;;;15.80;91.82;100778.80;179363;1256;44202;-78
2023/10/05 08:00:21;;;;;;;8.40;4.20;;;;;;;15.89;90.33;100782.09;179535;1256;45330;-78
2023/10/05 08:04:26;;;;;;;11.10;5.20;;;;;;;16.08;90.13;100785.93;179687;1259;44286;-79
2023/10/05 08:08:31;;;;;;;10.50;5.40;;;;;;;16.25;87.42;100785.11;178069;1257;46025;-78
2023/10/05 08:12:35;;;;;;;6.80;4.60;;;;;;;16.41;87.02;100782.13;179428;1260;57898;-77
2023/10/05 08:16:38;;;;;;;25.80;6.20;;;;;;;16.65;87.15;100787.43;179004;1260;46217;-77
2023/10/05 08:20:42;;;;;;;6.70;5.10;;;;;;;16.90;87.46;100785.19;179670;1256;45920;-78
2023/10/05 08:24:46;;;;;;;7.50;4.90;;;;;;;17.15;87.88;100781.56;178367;1259;46032;-77
2023/10/05 08:28:50;;;;;;;8.80;4.70;;;;;;;17.46;87.74;100778.83;178157;1259;45940;-78
2023/10/05 08:32:56;;;;;;;10.40;5.50;;;;;;;17.82;86.46;100785.88;179452;1257;59555;-77
2023/10/05 08:37:08;;;;;;;8.10;5.10;;;;;;;18.07;84.46;100793.54;180099;1257;46122;-78
2023/10/05 08:41:12;;;;;;;11.70;6.50;;;;;;;18.20;81.17;100791.09;179015;1257;46102;-78
2023/10/05 08:45:23;;;;;;;8.80;4.50;;;;;;;18.25;76.56;100784.73;179549;1258;45984;-77
2023/10/05 08:49:27;;;;;;;8.40;4.80;;;;;;;18.30;75.68;100784.23;179774;1258;46007;-78
2023/10/05 08:53:31;;;;;;;11.10;4.70;;;;;;;18.33;74.46;100782.48;179921;1257;58102;-78
2023/10/05 08:57:34;;;;;;;5.80;3.70;;;;;;;18.41;73.67;100783.67;179116;1258;44117;-77
2023/10/05 09:01:37;;;;;;;10.70;4.70;;;;;;;18.38;73.80;100780.88;179861;1256;46051;-77
2023/10/05 09:06:12;;;;;;;11.20;5.10;;;;;;;18.30;74.53;100787.01;179831;1258;46251;-78
2023/10/05 09:10:26;;;;;;;8.10;4.00;;;;;;;18.33;74.78;100786.08;180146;1258;46019;-77
2023/10/05 09:14:38;;;;;;;9.70;4.50;;;;;;;18.43;74.48;100787.89;180706;1256;57668;-77
2023/10/05 09:18:51;;;;;;;9.80;4.20;;;;;;;18.55;75.15;100791.14;179152;1261;45971;-78
2023/10/05 09:22:55;;;;;;;16.90;4.40;;;;;;;18.67;74.31;100788.92;179809;1256;46150;-77
2023/10/05 09:27:12;;;;;;;6.10;3.20;;;;;;;18.78;74.54;100785.38;180222;1260;46232;-77
2023/10/05 09:31:19;;;;;;;8.40;4.30;;;;;;;18.86;72.45;100784.19;179433;1256;44230;-78
2023/10/05 09:35:31;;;;;;;9.70;4.30;;;;;;;18.84;72.14;100777.98;180303;1258;58963;-78
2023/10/05 09:39:54;;;;;;;8.90;3.70;;;;;;;18.98;72.83;100782.92;179448;1256;46018;-77
2023/10/05 09:44:04;;;;;;;14.40;4.00;;;;;;;18.88;69.64;100776.09;181107;1256;43773;-77
2023/10/05 09:48:09;;;;;;;6.90;3.00;;;;;;;18.68;69.40;100778.73;180112;1257;44367;-77
2023/10/05 09:52:13;;;;;;;10.90;3.70;;;;;;;18.62;69.80;100782.66;179982;1259;45936;-78
2023/10/05 09:56:19;;;;;;;7.30;3.10;;;;;;;18.59;69.76;100772.02;179707;1256;58200;-77
2023/10/05 10:04:47;;;;;;;10.70;3.90;;;;;;;18.80;69.67;100784.88;178883;1261;46607;-77
2023/10/05 10:08:57;;;;;;;9.90;3.80;;;;;;;18.91;70.93;100782.94;179684;1256;46762;-78
2023/10/05 10:13:10;;;;;;;15.10;4.10;;;;;;;18.95;68.56;100778.40;179724;1260;46005;-78
2023/10/05 10:17:24;;;;;;;6.70;3.10;;;;;;;18.93;69.64;100774.66;179725;1258;58323;-78
2023/10/05 10:21:46;;;;;;;6.20;3.70;;;;;;;18.84;68.88;100769.46;180226;1257;45949;-77
2023/10/05 10:25:53;;;;;;;12.00;2.50;;;;;;;18.75;67.91;100768.11;179285;1256;46099;-77
2023/10/05 10:29:56;;;;;;;10.20;2.80;;;;;;;18.41;68.23;100760.89;179614;1257;45974;-77
2023/10/05 10:34:18;;;;;;;9.00;2.90;;;;;;;18.38;68.25;100765.66;179575;1262;44030;-78
2023/10/05 10:38:22;;;;;;;4.40;1.90;;;;;;;18.28;67.90;100758.94;179278;1262;59425;-77
2023/10/05 10:42:54;;;;;;;3.30;1.90;;;;;;;18.24;67.57;100749.49;179438;1258;46039;-78
2023/10/05 10:47:12;;;;;;;8.40;2.10;;;;;;;18.14;67.56;100745.23;179712;1260;45962;-78
2023/10/05 10:51:15;;;;;;;13.30;3.30;;;;;;;18.25;67.79;100739.73;179765;1257;45122;-78
2023/10/05 10:55:21;;;;;;;5.50;2.30;;;;;;;18.59;68.71;100726.25;179793;1259;46073;-77
2023/10/05 10:59:26;;;;;;;4.80;2.00;;;;;;;18.73;66.25;100714.45;179776;1262;57922;-78
2023/10/05 11:03:32;;;;;;;6.10;2.30;;;;;;;18.77;64.35;100711.33;180312;1257;43801;-78
2023/10/05 11:07:36;;;;;;;10.20;2.80;;;;;;;18.96;66.00;100716.85;179586;1259;46841;-77
2023/10/05 11:11:39;;;;;;;8.50;3.60;;;;;;;19.28;66.29;100711.55;179118;1257;46425;-77
2023/10/05 11:16:01;;;;;;;6.60;1.40;;;;;;;19.37;63.82;100718.59;180502;1257;46001;-78
2023/10/05 11:21:07;;;;;;;8.70;3.60;;;;;;;19.32;64.19;100725.29;180657;1261;57911;-78
2023/10/05 11:25:15;;;;;;;8.30;2.30;;;;;;;19.23;62.85;100720.86;178954;1262;45820;-78
2023/10/05 11:29:20;;;;;;;11.20;3.30;;;;;;;19.14;64.45;100716.22;179970;1257;44075;-78
2023/10/05 11:33:33;;;;;;;8.70;3.90;;;;;;;19.26;65.33;100724.36;180577;1260;45994;-77
2023/10/05 11:38:04;;;;;;;5.30;2.70;;;;;;;19.19;66.03;100718.95;179868;1261;45484;-78
2023/10/05 11:42:11;;;;;;;4.50;2.60;;;;;;;19.14;65.48;100725.42;180229;1261;57644;-78
2023/10/05 11:50:34;;;;;;;5.20;3.70;;;;;;;18.89;66.84;100725.70;179380;1257;44954;-77
2023/10/05 11:54:39;;;;;;;4.80;2.80;;;;;;;18.86;67.17;100723.58;179718;1258;44564;-77
2023/10/05 11:58:42;;;;;;;9.50;3.20;;;;;;;18.84;68.38;100723.88;179164;1257;46221;-78
2023/10/05 12:02:45;;;;;;;4.30;2.00;;;;;;;18.85;68.19;100727.38;179838;1260;58223;-78
2023/10/05 12:06:59;;;;;;;8.00;2.80;;;;;;;18.72;68.53;100727.02;179198;1258;46037;-78
2023/10/05 12:11:03;;;;;;;7.50;3.70;;;;;;;18.70;69.65;100727.94;180040;1257;44087;-77
2023/10/05 12:15:12;;;;;;;8.30;2.90;;;;;;;18.65;69.33;100727.18;179333;1256;45279;-78
2023/10/05 12:19:16;;;;;;;9.20;3.80;;;;;;;18.56;69.51;100726.17;179279;1257;44623;-78
2023/10/05 12:23:19;;;;;;;4.60;2.40;;;;;;;18.48;69.59;100729.20;179799;1258;57314;-78
2023/10/05 12:27:26;;;;;;;7.00;2.60;;;;;;;18.46;69.13;100727.79;179349;1257;45997;-78
2023/10/05 12:31:30;;;;;;;9.40;3.80;;;;;;;18.50;70.28;100729.69;179718;1257;45979;-78
2023/10/05 12:35:36;;;;;;;7.90;3.00;;;;;;;18.59;69.78;100722.14;180181;1257;46044;-78
2023/10/05 12:39:39;;;;;;;7.10;3.10;;;;;;;18.67;69.42;100732.11;180161;1258;47159;-77
2023/10/05 12:43:43;;;;;;;6.60;2.90;;;;;;;18.66;68.94;100730.09;179270;1257;57911;-77
2023/10/05 12:47:48;;;;;;;5.30;2.90;;;;;;;18.70;69.31;100725.04;178954;1260;46121;-78
2023/10/05 12:51:52;;;;;;;17.10;5.10;;;;;;;18.90;71.05;100730.80;180408;1256;46120;-77
2023/10/05 12:55:56;;;;;;;3.20;2.40;;;;;;;19.10;69.41;100724.45;180905;1258;43818;-78
2023/10/05 12:59:59;;;;;;;3.80;2.70;;;;;;;19.10;68.96;100720.92;180384;1257;44170;-78
2023/10/05 13:04:05;;;;;;;6.70;2.50;;;;;;;19.00;70.06;100721.72;180031;1259;58523;-78
2023/10/05 13:08:10;;;;;;;3.10;2.00;;;;;;;18.97;69.75;100727.33;181432;1257;43427;-77
2023/10/05 13:12:14;;;;;;;9.80;2.50;;;;;;;18.82;70.07;100728.34;180574;1257;43894;-78
2023/10/05 13:16:21;;;;;;;5.30;3.10;;;;;;;18.63;70.70;100721.64;180960;1257;45418;-78
2023/10/05 13:20:25;;;;;;;7.80;3.70;;;;;;;18.53;71.76;100730.12;180590;1257;44600;-78
2023/10/05 13:24:28;;;;;;;4.90;2.10;;;;;;;18.47;72.55;100731.45;180862;1256;58233;-79
2023/10/05 13:28:32;;;;;;;7.10;2.80;;;;;;;18.70;73.23;100727.39;180550;1257;43850;-78
2023/10/05 13:32:37;;;;;;;6.80;3.20;;;;;;;18.98;72.36;100722.14;181031;1257;43724;-79
2023/10/05 13:36:41;;;;;;;5.50;2.40;;;;;;;18.87;69.63;100719.98;180933;1257;45081;-78
2023/10/05 13:41:18;;;;;;;8.80;3.60;;;;;;;18.72;70.42;100714.55;180595;1257;43763;-78
2023/10/05 13:45:14;;;;;;;5.00;3.20;;;;;;;18.58;71.02;100719.11;179940;1257;57905;-77
2023/10/05 13:49:18;;;;;;;8.50;3.30;;;;;;;18.63;72.20;100721.16;179705;1257;44053;-78
2023/10/05 13:53:23;;;;;;;7.30;2.80;;;;;;;18.87;72.78;100723.59;179549;1257;45865;-79
2023/10/05 13:57:28;;;;;;;6.50;2.40;;;;;;;19.01;71.19;100723.13;180303;1257;46057;-79
2023/10/05 14:01:38;;;;;;;8.10;2.60;;;;;;;19.04;72.15;100723.85;180480;1257;45266;-78
2023/10/05 14:05:50;;;;;;;6.40;2.20;;;;;;;19.10;71.92;100721.23;181067;1258;58133;-79
2023/10/05 14:09:55;;;;;;;6.90;3.10;;;;;;;19.05;71.23;100721.95;180743;1258;45990;-78
2023/10/05 14:13:59;;;;;;;6.50;2.60;;;;;;;18.96;71.76;100716.26;181301;1256;44165;-78
2023/10/05 14:18:06;;;;;;;7.20;2.50;;;;;;;18.83;72.54;100717.48;180660;1257;44777;-78
2023/10/05 14:22:12;;;;;;;11.20;3.90;;;;;;;18.77;73.76;100710.86;180672;1260;46043;-78
2023/10/05 14:26:15;;;;;;;5.90;2.70;;;;;;;18.62;73.11;100711.37;179909;1259;57109;-78
2023/10/05 14:30:23;;;;;;;5.60;2.80;;;;;;;18.55;73.46;100709.55;180178;1257;44730;-79
2023/10/05 14:34:26;;;;;;;7.60;2.60;;;;;;;18.54;74.26;100710.09;180061;1257;45992;-78
2023/10/05 14:38:31;;;;;;;7.10;2.40;;;;;;;18.49;74.91;100712.91;180093;1257;45390;-77
2023/10/05 14:42:38;;;;;;;8.00;1.80;;;;;;;18.42;74.34;100714.21;179165;1258;46229;-77
2023/10/05 14:46:48;;;;;;;3.90;2.60;;;;;;;18.30;74.35;100716.30;179057;1259;57560;-78
2023/10/05 14:50:51;;;;;;;5.90;3.10;;;;;;;18.19;74.52;100721.06;180357;1257;44146;-77
2023/10/05 14:54:54;;;;;;;6.60;2.90;;;;;;;18.16;75.57;100722.80;180349;1257;44224;-77
2023/10/05 14:58:58;;;;;;;6.60;3.10;;;;;;;18.10;75.90;100721.78;179634;1256;46031;-78
2023/10/05 15:03:01;;;;;;;8.10;4.40;;;;;;;18.14;76.36;100719.00;180327;1256;46007;-77
2023/10/05 15:07:04;;;;;;;7.20;2.60;;;;;;;18.21;76.03;100719.51;179772;1259;57736;-78
2023/10/05 15:11:09;;;;;;;5.10;2.50;;;;;;;18.23;75.97;100720.25;180164;1257;46740;-77
2023/10/05 15:15:15;;;;;;;11.70;2.70;;;;;;;18.17;76.25;100723.94;179876;1256;46322;-77
2023/10/05 15:19:19;;;;;;;2.60;1.90;;;;;;;18.06;76.63;100728.13;180213;1258;45988;-78
2023/10/05 15:23:22;;;;;;;6.40;3.10;;;;;;;17.98;77.53;100734.50;180765;1256;43509;-77
2023/10/05 15:27:29;;;;;;;6.60;3.10;;;;;;;17.90;78.11;100732.33;180685;1257;59221;-77
2023/10/05 15:31:33;;;;;;;4.20;2.90;;;;;;;17.82;78.04;100730.58;179864;1259;44006;-78
2023/10/05 15:35:36;;;;;;;5.00;3.10;;;;;;;17.77;78.21;100732.20;180400;1257;44218;-79
2023/10/05 15:39:40;;;;;;;8.30;2.60;;;;;;;17.74;79.08;100735.02;180915;1257;43808;-78
2023/10/05 15:43:43;;;;;;;5.90;2.30;;;;;;;17.70;78.75;100732.73;179291;1260;45907;-79
2023/10/05 15:47:49;;;;;;;4.10;2.80;;;;;;;17.67;79.18;100735.80;180514;1256;58425;-79
2023/10/05 15:51:53;;;;;;;4.90;2.50;;;;;;;17.65;79.49;100746.34;180169;1257;45799;-78
2023/10/05 15:55:56;;;;;;;7.30;2.70;;;;;;;17.60;80.21;100753.35;180657;1257;45815;-79
2023/10/05 16:00:00;;;;;;;6.20;2.30;;;;;;;17.57;80.39;100762.08;180155;1257;44352;-78
2023/10/05 16:04:09;;;;;;;8.70;3.50;;;;;;;17.56;80.95;100764.90;180076;1257;46103;-78
2023/10/05 16:08:17;;;;;;;4.40;3.30;;;;;;;17.53;81.18;100763.38;179879;1256;58235;-78
2023/10/05 16:12:20;;;;;;;6.00;2.40;;;;;;;17.52;81.78;100767.21;179838;1257;45978;-78
2023/10/05 16:16:25;;;;;;;3.40;2.40;;;;;;;17.49;82.19;100768.11;179705;1260;46031;-77
2023/10/05 16:20:31;;;;;;;8.80;2.80;;;;;;;17.46;82.32;100772.14;180221;1256;46319;-78
2023/10/05 16:24:35;;;;;;;3.30;2.80;;;;;;;17.44;82.30;100773.27;179890;1257;43736;-78
2023/10/05 16:28:38;;;;;;;4.50;3.40;;;;;;;17.38;82.01;100772.80;179472;1257;60368;-79
2023/10/05 16:32:43;;;;;;;7.90;3.40;;;;;;;17.33;81.69;100780.33;179508;1258;46085;-78
2023/10/05 16:36:46;;;;;;;5.30;2.90;;;;;;;17.23;81.80;100786.14;179168;1257;46070;-79
2023/10/05 16:40:50;;;;;;;4.90;2.30;;;;;;;17.19;81.84;100791.20;179334;1259;46143;-78
2023/10/05 16:44:53;;;;;;;4.90;2.80;;;;;;;17.17;81.62;100797.52;179643;1257;46218;-79
2023/10/05 16:48:57;;;;;;;4.60;3.00;;;;;;;17.16;81.90;100797.65;180668;1257;59071;-78
2023/10/05 16:53:00;;;;;;;10.70;3.30;;;;;;;17.16;81.84;100800.91;179829;1257;46000;-78
2023/10/05 16:57:07;;;;;;;3.60;2.30;;;;;;;17.16;82.43;100805.15;180520;1256;46029;-79
2023/10/05 17:01:11;;;;;;;8.00;3.90;;;;;;;17.18;82.27;100805.84;179572;1256;46098;-79
2023/10/05 17:05:16;;;;;;;9.10;4.50;;;;;;;17.23;82.39;100808.05;180270;1258;46028;-79
2023/10/05 17:09:19;;;;;;;15.40;3.30;;;;;;;17.23;81.78;100808.16;179920;1257;58173;-79
2023/10/05 17:13:22;;;;;;;8.60;3.70;;;;;;;17.20;81.02;100812.44;180432;1256;45935;-80
2023/10/05 17:17:26;;;;;;;6.80;3.00;;;;;;;17.17;80.63;100811.91;179236;1257;46221;-80
2023/10/05 17:21:29;;;;;;;4.60;3.00;;;;;;;17.13;80.49;100815.91;180657;1257;46005;-79
2023/10/05 17:25:37;;;;;;;5.80;2.50;;;;;;;17.10;80.46;100821.20;178866;1257;44387;-79
2023/10/05 17:29:42;;;;;;;6.20;2.80;;;;;;;17.04;80.42;100831.42;179585;1254;58020;-81
2023/10/05 17:33:45;;;;;;;9.30;3.60;;;;;;;17.03;80.35;100829.09;178795;1257;45974;-83
2023/10/05 17:37:50;;;;;;;4.10;2.10;;;;;;;17.01;80.51;100830.50;178593;1260;46019;-83
2023/10/05 17:41:56;;;;;;;6.70;3.00;;;;;;;17.04;80.59;100830.55;178876;1257;46163;-83
2023/10/05 17:45:59;;;;;;;10.20;3.70;;;;;;;17.07;80.87;100837.45;179668;1260;45951;-83
2023/10/05 17:50:03;;;;;;;7.60;3.70;;;;;;;17.04;80.88;100842.41;178437;1257;58602;-82
2023/10/05 17:54:07;;;;;;;5.00;2.70;;;;;;;17.00;81.16;100845.13;178699;1260;44714;-81
2023/10/05 17:58:11;;;;;;;10.80;3.60;;;;;;;16.98;81.45;100850.11;179349;1257;46025;-82
2023/10/05 18:02:17;;;;;;;6.10;2.50;;;;;;;16.99;81.82;100852.00;180012;1257;45935;-82
2023/10/05 18:06:20;;;;;;;7.60;3.70;;;;;;;17.02;82.14;100855.86;179251;1256;44615;-82
2023/10/05 18:10:23;;;;;;;7.00;3.50;;;;;;;17.00;82.50;100867.13;179090;1257;58215;-82
2023/10/05 18:14:27;;;;;;;8.00;3.80;;;;;;;16.94;82.26;100866.27;178227;1257;46094;-82
2023/10/05 18:18:30;;;;;;;6.10;2.50;;;;;;;16.86;82.41;100869.73;178530;1257;46001;-82
2023/10/05 18:22:34;;;;;;;3.80;2.80;;;;;;;16.77;82.86;100868.46;178663;1257;46067;-81
2023/10/05 18:26:37;;;;;;;7.80;3.60;;;;;;;16.67;83.19;100874.77;179535;1257;46040;-83
2023/10/05 18:30:41;;;;;;;7.00;3.00;;;;;;;16.57;83.83;100880.95;178656;1257;59632;-83
2023/10/05 18:34:44;;;;;;;6.10;3.50;;;;;;;16.48;84.64;100880.64;178470;1257;45970;-82
2023/10/05 18:38:49;;;;;;;5.40;2.80;;;;;;;16.40;85.48;100882.77;178068;1257;45925;-82
2023/10/05 18:42:53;;;;;;;6.30;3.30;;;;;;;16.35;85.95;100880.83;178229;1257;47299;-82
2023/10/05 18:46:56;;;;;;;8.00;3.60;;;;;;;16.30;86.37;100880.33;177880;1257;46111;-83
2023/10/05 18:51:07;;;;;;;8.20;3.00;;;;;;;16.24;87.01;100883.84;177609;1257;59308;-81
2023/10/05 18:55:10;;;;;;;17.90;3.30;;;;;;;16.21;86.79;100884.41;178006;1257;46027;-82
2023/10/05 18:59:14;;;;;;;9.10;5.20;;;;;;;16.22;87.36;100888.67;179434;1258;45942;-82
2023/10/05 19:03:18;;;;;;;7.60;3.40;;;;;;;16.11;90.23;100891.50;178680;1257;46079;-82
2023/10/05 19:07:21;;;;;;;7.20;3.80;;;;;;;16.04;91.86;100907.02;178553;1257;44074;-82